createdAt,value
2023-02-24T00:18:24.282Z,85.20
2023-02-24T00:48:27.284Z,82.86
2023-02-24T01:18:30.221Z,84.66
2023-02-24T01:48:33.177Z,83.20
2023-02-24T02:18:45.661Z,85.25
2023-02-24T02:48:51.291Z,85.03
2023-02-24T03:18:57.336Z,85.51
2023-02-24T03:49:05.986Z,86.74
2023-02-24T04:19:13.773Z,87.28
2023-02-24T04:49:17.618Z,88.83
2023-02-24T05:19:20.725Z,88.52
2023-02-24T05:49:25.294Z,88.09
2023-02-24T06:19:28.275Z,85.60
2023-02-24T06:49:31.277Z,85.45
2023-02-24T07:19:34.422Z,84.16
2023-02-24T07:49:40.183Z,83.67
2023-02-24T08:19:43.223Z,83.22
2023-02-24T08:49:47.075Z,80.34
2023-02-24T09:19:50.913Z,75.63
2023-02-24T09:49:56.154Z,71.46
2023-02-24T10:20:00.914Z,71.77
2023-02-24T10:50:05.704Z,70.21
2023-02-24T11:20:19.244Z,67.77
2023-02-24T11:50:31.077Z,70.11
2023-02-24T12:20:38.252Z,70.31
2023-02-24T12:50:47.868Z,69.42
2023-02-24T13:21:02.531Z,70.05
2023-02-24T13:51:19.965Z,69.73
2023-02-24T14:21:25.392Z,69.81
2023-02-24T14:51:33.081Z,76.45
2023-02-24T15:21:40.983Z,80.93
2023-02-24T15:51:45.620Z,83.44
2023-02-24T16:21:48.621Z,86.42
2023-02-24T16:51:52.797Z,86.46
2023-02-24T17:21:55.894Z,89.48
2023-02-24T17:51:59.543Z,91.21
2023-02-24T18:22:02.561Z,91.97
2023-02-24T18:52:05.599Z,92.74
2023-02-24T19:22:09.761Z,92.91
2023-02-24T19:52:12.754Z,93.70
2023-02-24T20:22:15.846Z,94.24
2023-02-24T20:52:19.431Z,93.72
2023-02-24T21:22:22.469Z,92.89
2023-02-24T21:52:25.461Z,93.54
2023-02-24T22:22:28.954Z,91.45
2023-02-24T22:52:32.121Z,90.07
2023-02-24T23:22:35.102Z,88.57
2023-02-24T23:52:38.017Z,89.21
